createdAt,value
2023-05-01T01:21:46.544Z,5.68
2023-05-01T01:34:02.455Z,6.03
2023-05-01T01:39:11.708Z,6.43
2023-05-01T01:44:21.411Z,8.52
2023-05-01T01:49:27.556Z,7.00
2023-05-01T01:54:34.185Z,4.53
2023-05-01T01:59:37.017Z,6.27
2023-05-01T02:04:43.922Z,8.05
2023-05-01T02:09:47.565Z,13.03
2023-05-01T02:14:51.955Z,8.30
2023-05-01T02:19:58.041Z,5.88
2023-05-01T02:25:02.108Z,11.52
2023-05-01T02:30:07.475Z,8.38
2023-05-01T02:35:12.046Z,8.05
2023-05-01T02:40:15.912Z,8.00
2023-05-01T02:45:20.965Z,7.38
2023-05-01T02:50:27.367Z,7.13
2023-05-01T02:55:30.398Z,8.80
2023-05-01T03:00:34.575Z,5.40
2023-05-01T03:05:39.551Z,9.15
2023-05-01T03:10:43.248Z,6.93
2023-05-01T03:15:46.516Z,9.48
2023-05-01T03:20:54.971Z,9.68
2023-05-01T03:25:59.530Z,10.50
2023-05-01T03:31:02.731Z,16.98
2023-05-01T03:36:08.488Z,5.38
2023-05-01T03:41:11.381Z,4.30
2023-05-01T03:46:29.279Z,10.13
2023-05-01T03:51:33.954Z,5.13
2023-05-01T03:56:37.049Z,5.18
2023-05-01T04:01:41.431Z,4.90
2023-05-01T04:06:45.791Z,7.90
2023-05-01T04:11:48.581Z,6.72
2023-05-01T04:16:52.641Z,12.00
2023-05-01T04:21:56.929Z,6.45
2023-05-01T04:26:59.745Z,11.60
2023-05-01T04:32:02.524Z,8.30
2023-05-01T04:37:08.910Z,5.65
2023-05-01T04:42:11.642Z,14.30
2023-05-01T04:47:14.690Z,6.85
2023-05-01T04:52:18.763Z,13.60
2023-05-01T04:57:31.755Z,5.05
2023-05-01T05:02:36.092Z,6.22
2023-05-01T05:07:40.689Z,7.78
2023-05-01T05:13:12.511Z,5.45
2023-05-01T05:18:15.831Z,7.75
2023-05-01T05:23:21.427Z,9.93
2023-05-01T05:28:24.336Z,10.20
2023-05-01T05:33:29.077Z,11.65
2023-05-01T05:38:33.412Z,11.80
2023-05-01T05:43:37.322Z,6.78
2023-05-01T05:48:41.678Z,9.48
2023-05-01T05:53:47.486Z,5.32
2023-05-01T05:58:50.834Z,3.83
2023-05-01T06:03:55.777Z,10.90
2023-05-01T06:09:03.766Z,12.95
2023-05-01T06:14:07.716Z,8.20
2023-05-01T06:19:12.128Z,8.88
2023-05-01T06:24:17.216Z,4.53
2023-05-01T06:29:24.984Z,17.20
2023-05-01T06:34:28.841Z,8.55
2023-05-01T06:39:33.816Z,9.77
2023-05-01T06:44:36.857Z,6.38
2023-05-01T06:49:39.883Z,9.43
2023-05-01T06:54:44.381Z,9.10
2023-05-01T06:59:47.158Z,9.95
2023-05-01T07:04:49.919Z,10.45
2023-05-01T07:09:54.302Z,8.40
2023-05-01T07:14:57.676Z,11.10
2023-05-01T07:20:01.801Z,9.15
2023-05-01T07:25:07.174Z,8.40
2023-05-01T07:30:12.361Z,5.90
2023-05-01T07:35:15.150Z,10.05
2023-05-01T07:40:19.328Z,8.02
2023-05-01T07:45:22.082Z,8.35
2023-05-01T07:50:25.941Z,8.15
2023-05-01T07:55:31.236Z,8.52
2023-05-01T08:00:34.314Z,8.48
2023-05-01T08:05:37.048Z,7.47
2023-05-01T08:10:41.778Z,7.88
2023-05-01T08:15:44.574Z,8.05
2023-05-01T08:20:48.492Z,8.32
2023-05-01T08:25:54.048Z,11.15
2023-05-01T08:30:56.949Z,10.27
2023-05-01T08:36:00.804Z,8.65
2023-05-01T08:41:07.005Z,6.25
2023-05-01T08:46:13.192Z,6.05
2023-05-01T08:51:21.171Z,5.47
2023-05-01T08:56:26.531Z,6.97
2023-05-01T09:01:32.532Z,8.35
2023-05-01T09:06:35.504Z,9.80
2023-05-01T09:11:40.060Z,8.35
2023-05-01T09:16:43.630Z,8.05
2023-05-01T09:21:47.518Z,13.35
2023-05-01T09:26:52.192Z,5.88
2023-05-01T09:31:55.264Z,7.05
2023-05-01T09:36:58.609Z,10.10
2023-05-01T09:42:03.442Z,9.70
2023-05-01T09:47:08.256Z,8.90
2023-05-01T09:52:14.784Z,8.35
2023-05-01T09:57:34.855Z,7.35
2023-05-01T10:02:38.032Z,5.72
2023-05-01T10:07:41.908Z,6.55
2023-05-01T10:12:46.815Z,7.35
2023-05-01T10:17:52.757Z,6.75
2023-05-01T10:22:56.063Z,7.10
2023-05-01T10:28:04.580Z,8.25
2023-05-01T10:33:07.826Z,9.65
2023-05-01T10:38:14.802Z,5.97
2023-05-01T10:43:25.727Z,6.78
2023-05-01T10:48:59.376Z,9.77
2023-05-01T10:54:25.579Z,7.10
2023-05-01T11:00:09.760Z,6.68
2023-05-01T11:05:14.295Z,8.80
2023-05-01T11:10:28.199Z,4.05
2023-05-01T11:15:35.808Z,11.70
2023-05-01T11:20:52.176Z,3.80
2023-05-01T11:26:06.220Z,4.90
2023-05-01T11:31:11.931Z,4.20
2023-05-01T11:36:15.088Z,5.88
2023-05-01T11:41:21.884Z,5.82
2023-05-01T11:46:27.702Z,3.22
2023-05-01T11:51:31.923Z,4.15
2023-05-01T11:56:36.561Z,5.50
2023-05-01T12:01:45.020Z,4.13
2023-05-01T12:06:48.399Z,5.63
2023-05-01T12:11:53.264Z,3.63
2023-05-01T12:16:58.423Z,4.45
2023-05-01T12:22:08.013Z,8.55
2023-05-01T12:27:11.252Z,9.15
2023-05-01T12:32:16.826Z,6.90
2023-05-01T12:37:21.168Z,3.95
2023-05-01T12:42:23.943Z,9.23
2023-05-01T12:47:39.200Z,8.20
2023-05-01T12:52:42.760Z,3.13
2023-05-01T12:57:55.380Z,5.95
2023-05-01T13:03:05.957Z,7.47
2023-05-01T13:08:08.882Z,6.85
2023-05-01T13:13:12.611Z,7.15
2023-05-01T13:18:18.096Z,6.43
2023-05-01T13:23:20.922Z,3.60
2023-05-01T13:28:24.024Z,3.80
2023-05-01T13:33:32.522Z,3.45
2023-05-01T13:38:43.636Z,6.63
2023-05-01T13:43:47.110Z,10.65
2023-05-01T13:48:52.100Z,6.75
2023-05-01T13:53:57.484Z,6.45
2023-05-01T13:59:00.750Z,4.00
2023-05-01T14:04:04.976Z,5.30
2023-05-01T14:09:07.830Z,6.55
2023-05-01T14:14:10.909Z,2.45
2023-05-01T14:19:16.143Z,3.88
2023-05-01T14:24:19.176Z,6.78
2023-05-01T14:29:24.895Z,5.50
2023-05-01T14:34:29.349Z,7.55
2023-05-01T14:39:34.022Z,4.60
2023-05-01T14:44:41.064Z,5.13
2023-05-01T14:54:49.140Z,4.50
2023-05-01T14:59:52.174Z,5.00
2023-05-01T15:04:57.428Z,4.30
2023-05-01T15:10:00.674Z,5.60
2023-05-01T15:15:05.245Z,3.40
2023-05-01T15:20:12.903Z,4.68
2023-05-01T15:25:16.515Z,3.57
2023-05-01T15:30:19.608Z,2.92
2023-05-01T15:35:24.424Z,3.70
2023-05-01T15:40:27.928Z,5.60
2023-05-01T15:45:30.917Z,3.45
2023-05-01T15:50:35.146Z,5.75
2023-05-01T15:55:38.194Z,5.43
2023-05-01T16:00:40.883Z,11.57
2023-05-01T16:05:47.771Z,7.57
2023-05-01T16:10:50.508Z,10.00
2023-05-01T16:15:53.283Z,5.97
2023-05-01T16:20:58.027Z,5.65
2023-05-01T16:26:00.935Z,3.72
2023-05-01T16:31:16.023Z,7.97
2023-05-01T16:36:30.285Z,5.68
2023-05-01T16:41:42.242Z,7.75
2023-05-01T16:46:53.250Z,5.57
2023-05-01T16:51:58.618Z,4.20
2023-05-01T16:57:01.441Z,28.80
2023-05-01T17:02:04.867Z,8.57
2023-05-01T17:07:09.254Z,5.90
2023-05-01T17:12:12.162Z,8.00
2023-05-01T17:17:17.468Z,4.40
2023-05-01T17:22:27.240Z,7.90
2023-05-01T17:27:31.923Z,6.07
2023-05-01T17:32:37.431Z,4.85
2023-05-01T17:37:42.377Z,3.90
2023-05-01T17:42:45.485Z,4.45
2023-05-01T17:47:48.298Z,4.47
2023-05-01T17:52:52.610Z,6.57
2023-05-01T17:57:55.637Z,7.28
2023-05-01T18:02:58.566Z,9.70
2023-05-01T18:08:04.358Z,5.28
2023-05-01T18:13:07.305Z,4.85
2023-05-01T18:18:11.342Z,5.85
2023-05-01T18:23:15.451Z,5.53
2023-05-01T18:28:19.360Z,6.05
2023-05-01T18:33:22.605Z,9.05
2023-05-01T18:38:28.838Z,3.97
2023-05-01T18:43:32.289Z,8.68
2023-05-01T18:48:35.149Z,4.53
2023-05-01T18:53:39.450Z,6.28
2023-05-01T18:58:42.475Z,5.60
2023-05-01T19:03:45.301Z,6.40
2023-05-01T19:08:49.534Z,7.50
2023-05-01T19:13:53.062Z,7.75
2023-05-01T19:18:55.841Z,11.85
2023-05-01T19:24:00.019Z,8.95
2023-05-01T19:29:02.915Z,8.75
2023-05-01T19:34:05.722Z,8.75
2023-05-01T19:39:10.236Z,9.48
2023-05-01T19:44:13.426Z,7.15
2023-05-01T19:49:16.505Z,14.25
2023-05-01T19:54:22.270Z,8.10
2023-05-01T19:59:25.163Z,13.90
2023-05-01T20:04:27.953Z,8.15
2023-05-01T20:09:33.144Z,11.05
2023-05-01T20:14:36.457Z,6.30
2023-05-01T20:19:40.032Z,9.55
2023-05-01T20:24:44.284Z,7.22
2023-05-01T20:29:47.135Z,6.10
2023-05-01T20:34:49.961Z,6.85
2023-05-01T20:39:54.354Z,8.27
2023-05-01T20:44:57.386Z,6.70
2023-05-01T20:50:00.859Z,9.73
2023-05-01T20:55:06.008Z,7.43
2023-05-01T21:00:09.997Z,7.10
2023-05-01T21:05:12.985Z,8.07
2023-05-01T21:10:17.335Z,8.02
2023-05-01T21:15:20.451Z,7.63
2023-05-01T21:20:30.831Z,15.70
2023-05-01T21:25:35.189Z,18.52
2023-05-01T21:30:38.173Z,16.65
2023-05-01T21:35:43.039Z,24.65
2023-05-01T21:40:47.350Z,19.45
2023-05-01T21:45:50.256Z,18.13
2023-05-01T21:50:53.406Z,11.13
2023-05-01T21:55:57.680Z,14.02
2023-05-01T22:01:00.730Z,13.95
2023-05-01T22:06:03.839Z,10.75
2023-05-01T22:11:08.619Z,9.20
2023-05-01T22:16:12.604Z,11.02
2023-05-01T22:21:15.335Z,13.15
2023-05-01T22:26:19.501Z,13.13
2023-05-01T22:31:22.402Z,11.07
2023-05-01T22:36:25.359Z,12.23
2023-05-01T22:41:29.457Z,14.10
2023-05-01T22:46:32.268Z,14.57
2023-05-01T22:51:35.116Z,18.00
2023-05-01T22:56:39.669Z,16.77
2023-05-01T23:01:42.434Z,14.07
2023-05-01T23:06:45.368Z,18.75
2023-05-01T23:11:49.861Z,20.55
2023-05-01T23:16:52.883Z,20.02
2023-05-01T23:22:08.717Z,28.45
2023-05-01T23:27:13.478Z,24.25
2023-05-01T23:32:23.007Z,26.92
2023-05-01T23:37:25.958Z,26.50
2023-05-01T23:42:30.130Z,30.17
2023-05-01T23:47:33.031Z,29.48
2023-05-01T23:52:36.232Z,32.08
2023-05-01T23:57:40.375Z,30.13
